Time;durP1;ratioP1;P1;durP2;ratioP2;P2;SDS_P1;SDS_P2;PMS_P1;PMS_P2;Temp;Humidity;BMP_temperature;BMP_pressure;BME280_temperature;BME280_humidity;BME280_pressure;Samples;Min_cycle;Max_cycle;Signal;HPM_P1;HPM_P2
2022/11/16 00:02:27;;;;;;;8.77;4.90;;;;;;;16.29;62.91;99829.91;5671810;24;20053;-80
2022/11/16 00:04:52;;;;;;;9.95;4.95;;;;;;;16.29;62.81;99822.97;4799509;29;20053;-80
2022/11/16 00:07:17;;;;;;;8.65;5.15;;;;;;;16.29;62.84;99829.91;4799843;29;20081;-80
2022/11/16 00:20:04;;;;;;;8.07;4.65;;;;;;;16.29;62.81;99822.09;5392450;24;20054;-79
2022/11/16 00:22:30;;;;;;;8.90;4.70;;;;;;;16.29;62.90;99822.09;4826561;29;20030;-79
2022/11/16 00:24:55;;;;;;;6.18;4.18;;;;;;;16.30;62.90;99823.84;4796682;29;20046;-79
2022/11/16 00:27:20;;;;;;;7.85;4.32;;;;;;;16.29;62.65;99822.09;4796491;29;20094;-80
2022/11/16 00:29:46;;;;;;;9.23;4.38;;;;;;;16.29;62.67;99819.50;4796212;29;20038;-80
2022/11/16 00:32:11;;;;;;;7.20;3.80;;;;;;;16.30;62.80;99823.84;4796581;29;20041;-79
2022/11/16 00:34:38;;;;;;;7.45;4.03;;;;;;;16.27;62.91;99816.97;4781304;29;20141;-79
2022/11/16 01:36:58;;;;;;;5.53;3.28;;;;;;;16.28;62.71;99797.03;5727174;24;20042;-89
2022/11/16 01:39:23;;;;;;;7.45;3.50;;;;;;;16.29;62.77;99797.03;4891366;24;20034;-86
2022/11/16 01:47:01;;;;;;;6.28;3.10;;;;;;;16.27;62.74;99809.19;5586597;24;20058;-90
2022/11/16 01:52:17;;;;;;;4.18;2.80;;;;;;;16.30;62.58;99821.22;5092471;24;20462;-81
2022/11/16 01:54:45;;;;;;;6.03;3.17;;;;;;;16.29;62.48;99819.50;4844723;29;20478;-80
2022/11/16 01:57:14;;;;;;;8.15;2.85;;;;;;;16.29;62.85;99822.09;4828854;29;20482;-81
2022/11/16 01:59:42;;;;;;;4.07;2.80;;;;;;;16.29;62.72;99809.13;4843460;29;20037;-80
2022/11/16 02:02:08;;;;;;;5.70;3.00;;;;;;;16.29;62.71;99806.53;4813209;29;20057;-81
2022/11/16 02:04:33;;;;;;;5.50;2.95;;;;;;;16.29;62.79;99806.53;4828227;29;20057;-80
2022/11/16 02:09:52;;;;;;;4.93;2.78;;;;;;;16.29;62.74;99804.81;4827972;29;20046;-81
2022/11/16 02:10:53;;;;;;;3.90;2.88;;;;;;;16.29;62.72;99801.34;4843963;29;20034;-80
2022/11/16 02:13:32;;;;;;;4.07;2.55;;;;;;;16.29;62.80;99790.94;4843026;29;20042;-80
2022/11/16 02:16:24;;;;;;;4.57;2.50;;;;;;;16.29;62.54;99791.84;4828047;29;20049;-80
2022/11/16 02:18:49;;;;;;;3.97;2.50;;;;;;;16.29;62.58;99790.94;4843035;29;20038;-81
2022/11/16 02:21:14;;;;;;;3.50;2.30;;;;;;;16.29;62.60;99790.94;4842930;29;20137;-80
2022/11/16 02:24:09;;;;;;;4.43;2.85;;;;;;;16.29;62.79;99793.53;4842846;29;20034;-80
2022/11/16 02:27:01;;;;;;;5.50;2.75;;;;;;;16.30;62.73;99792.69;4828129;29;20481;-80
2022/11/16 02:29:44;;;;;;;3.90;2.30;;;;;;;16.29;62.73;99791.84;4827632;29;20034;-81
2022/11/16 02:32:21;;;;;;;4.93;2.43;;;;;;;16.29;62.62;99799.63;4843908;29;20034;-80
2022/11/16 02:34:59;;;;;;;3.55;2.20;;;;;;;16.29;62.89;99798.75;4842474;29;20046;-80
2022/11/16 02:37:29;;;;;;;3.33;2.20;;;;;;;16.28;62.71;99799.66;4842618;29;20091;-81
2022/11/16 02:39:58;;;;;;;4.63;2.20;;;;;;;16.28;62.72;99803.09;4827545;29;20481;-81
2022/11/16 02:42:47;;;;;;;4.05;2.40;;;;;;;16.27;62.60;99792.75;4842772;29;20038;-81
2022/11/16 02:45:19;;;;;;;4.28;2.20;;;;;;;16.29;62.72;99803.94;4827193;29;20049;-80
2022/11/16 02:47:46;;;;;;;4.63;2.42;;;;;;;16.29;62.72;99815.19;4842603;29;20073;-80
2022/11/16 02:50:17;;;;;;;3.58;2.22;;;;;;;16.29;62.77;99819.50;4812260;29;20046;-80
2022/11/16 02:52:42;;;;;;;3.92;2.20;;;;;;;16.29;62.66;99825.59;4827034;29;20413;-80
2022/11/16 02:55:08;;;;;;;3.42;2.17;;;;;;;16.29;62.55;99816.91;4812462;29;20045;-81
2022/11/16 02:57:38;;;;;;;4.22;2.30;;;;;;;16.28;62.92;99821.25;4830061;29;20468;-81
2022/11/16 03:00:06;;;;;;;3.85;2.15;;;;;;;16.28;62.79;99803.09;4846094;29;20042;-81
2022/11/16 03:02:43;;;;;;;5.60;2.03;;;;;;;16.28;62.57;99807.44;4816164;29;20140;-81
2022/11/16 03:46:43;;;;;;;3.42;1.67;;;;;;;16.28;62.70;99797.03;5679012;24;20137;-87
2022/11/16 04:51:54;;;;;;;2.30;1.50;;;;;;;16.27;62.59;99839.47;5011476;23;19915;-86
2022/11/16 05:43:28;;;;;;;1.90;1.30;;;;;;;16.25;62.52;99844.69;4916770;24;20049;-80
2022/11/16 06:25:15;;;;;;;10.63;4.28;;;;;;;16.30;63.07;99852.38;5171885;24;20054;-81
2022/11/16 06:43:24;;;;;;;8.50;3.10;;;;;;;16.40;63.36;99852.19;5717547;24;20193;-83
2022/11/16 07:01:21;;;;;;;14.35;4.38;;;;;;;16.49;63.38;99864.13;5233612;24;20034;-87
2022/11/16 07:03:46;;;;;;;12.52;4.07;;;;;;;16.48;63.53;99870.19;4817589;29;20083;-90
2022/11/16 07:06:13;;;;;;;9.02;3.45;;;;;;;16.48;63.54;99870.19;4848140;29;20042;-87
2022/11/16 07:08:38;;;;;;;10.65;3.58;;;;;;;16.51;63.50;99872.72;4848156;29;20034;-88
2022/11/16 07:13:39;;;;;;;8.07;2.80;;;;;;;16.52;63.39;99877.03;4926766;24;20100;-89
2022/11/16 07:16:07;;;;;;;9.05;3.50;;;;;;;16.52;63.38;99873.59;4847854;29;20046;-86
2022/11/16 07:18:34;;;;;;;11.15;3.60;;;;;;;16.52;63.71;99879.63;4846464;29;20023;-88
2022/11/16 07:26:59;;;;;;;11.02;3.40;;;;;;;16.62;63.39;99891.53;5491009;24;20063;-91
2022/11/16 07:29:30;;;;;;;7.18;3.15;;;;;;;16.57;63.40;99895.09;4845734;29;20042;-90
2022/11/16 07:31:56;;;;;;;8.93;3.03;;;;;;;16.56;63.37;99896.00;4831976;29;20019;-89
2022/11/16 07:37:29;;;;;;;9.63;3.10;;;;;;;16.54;63.43;99903.81;4959106;24;20039;-89
2022/11/16 07:39:55;;;;;;;8.55;3.10;;;;;;;16.53;63.30;99912.53;4842894;29;20114;-88
2022/11/16 07:42:20;;;;;;;9.07;2.90;;;;;;;16.55;63.27;99912.47;4829809;29;20071;-87
2022/11/16 07:44:45;;;;;;;12.55;3.45;;;;;;;16.54;63.00;99918.56;4814912;29;20038;-88
2022/11/16 07:47:11;;;;;;;7.05;2.65;;;;;;;16.56;63.18;99919.38;4813340;29;20042;-90
2022/11/16 07:49:36;;;;;;;7.97;3.00;;;;;;;16.56;63.18;99924.59;4815836;29;20052;-88
2022/11/16 07:52:02;;;;;;;6.40;2.88;;;;;;;16.61;63.13;99927.94;4821990;29;20034;-88
2022/11/16 07:54:27;;;;;;;7.07;3.10;;;;;;;16.59;63.06;99921.91;4799710;29;20133;-91
2022/11/16 07:56:53;;;;;;;5.97;2.80;;;;;;;16.66;63.01;99933.91;4829304;29;20059;-89
2022/11/16 07:59:18;;;;;;;6.75;2.85;;;;;;;16.72;62.81;99930.31;4847001;29;20035;-88
2022/11/16 08:01:46;;;;;;;7.00;2.47;;;;;;;16.74;63.07;99938.94;4829875;29;20042;-91
2022/11/16 08:04:11;;;;;;;8.43;2.75;;;;;;;16.74;62.68;99933.75;4843811;29;20099;-89
2022/11/16 08:06:40;;;;;;;8.77;2.75;;;;;;;16.77;62.85;99939.75;4815062;29;20050;-90
2022/11/16 08:09:05;;;;;;;7.20;2.72;;;;;;;16.75;62.83;99933.72;4845982;29;20093;-88
2022/11/16 08:11:30;;;;;;;4.35;2.20;;;;;;;16.74;62.94;99933.75;4845683;29;20046;-93
2022/11/16 08:13:56;;;;;;;6.85;2.30;;;;;;;16.72;62.77;99941.56;4817421;29;20042;-88
2022/11/16 08:16:22;;;;;;;4.93;2.47;;;;;;;16.73;62.79;99945.03;4848222;29;20042;-90
2022/11/16 08:18:48;;;;;;;6.38;2.60;;;;;;;16.74;63.04;99944.13;4846232;29;20083;-91
2022/11/16 08:21:15;;;;;;;4.57;2.10;;;;;;;16.75;62.81;99945.88;4846644;29;20072;-89
2022/11/16 08:23:41;;;;;;;5.30;2.33;;;;;;;16.73;62.89;99945.88;4846527;29;20467;-89
2022/11/16 08:26:09;;;;;;;4.93;2.10;;;;;;;16.73;62.63;99942.44;4843092;29;20038;-89
2022/11/16 08:28:36;;;;;;;5.75;2.47;;;;;;;16.74;62.74;99939.78;4817048;29;20038;-79
2022/11/16 08:31:13;;;;;;;6.82;3.22;;;;;;;16.74;62.76;99937.19;4812120;29;20129;-79
2022/11/16 08:33:39;;;;;;;6.30;2.38;;;;;;;16.74;62.75;99950.19;4826267;29;20043;-78
2022/11/16 08:36:06;;;;;;;5.18;2.13;;;;;;;16.74;62.80;99944.13;4827103;29;20127;-79
2022/11/16 08:38:32;;;;;;;4.25;1.90;;;;;;;16.75;62.63;99940.66;4811481;29;20065;-79
2022/11/16 08:40:57;;;;;;;4.75;2.20;;;;;;;16.73;62.48;99951.09;4796388;29;20493;-79
2022/11/16 08:43:23;;;;;;;7.85;2.58;;;;;;;16.73;62.73;99947.63;4811138;29;20039;-79
2022/11/16 08:45:52;;;;;;;3.47;1.90;;;;;;;16.74;62.43;99946.72;4812058;29;20058;-79
2022/11/16 08:48:18;;;;;;;6.35;2.10;;;;;;;16.72;62.63;99946.75;4812644;29;20038;-78
2022/11/16 09:29:38;;;;;;;3.75;1.70;;;;;;;16.66;62.42;99947.75;4868531;29;20089;-85
2022/11/16 10:29:58;;;;;;;2.90;1.30;;;;;;;16.76;62.07;99957.94;5900379;23;20021;31
2022/11/16 10:33:17;;;;;;;6.00;1.60;;;;;;;16.80;62.08;99959.63;4804013;29;20273;-84
2022/11/16 10:36:49;;;;;;;3.53;1.40;;;;;;;16.84;61.77;99956.09;4780362;29;20111;-86
2022/11/16 10:39:58;;;;;;;7.22;1.42;;;;;;;16.96;61.76;99960.16;4801494;30;20222;-82
2022/11/16 10:46:54;;;;;;;2.90;1.30;;;;;;;16.99;61.89;99966.16;4789088;30;20084;-81
2022/11/16 10:49:58;;;;;;;4.03;1.27;;;;;;;16.95;61.75;99958.47;4789807;29;20031;-82
2022/11/16 11:03:02;;;;;;;2.58;1.20;;;;;;;16.85;62.22;99950.88;4778035;30;20066;-83
2022/11/16 11:15:38;;;;;;;2.95;1.42;;;;;;;16.82;62.17;99948.31;4810311;30;20027;-83
2022/11/16 11:22:18;;;;;;;3.20;1.50;;;;;;;16.83;62.05;99943.97;4810348;29;20050;-83
2022/11/16 11:50:28;;;;;;;2.97;1.20;;;;;;;16.83;62.05;99931.88;4625738;30;20085;-83
2022/11/16 19:39:29;;;;;;;4.45;0.88;;;;;;;16.91;60.64;99500.31;5782845;23;20064;-81
2022/11/16 19:45:48;;;;;;;1.47;1.00;;;;;;;16.91;60.73;99489.06;5886700;24;20064;31
2022/11/16 20:15:55;;;;;;;3.25;1.30;;;;;;;16.69;61.61;99416.06;5878828;24;20228;31
2022/11/16 22:44:50;;;;;;;5.57;2.85;;;;;;;16.55;61.34;99077.13;5552245;23;20050;-83
2022/11/16 22:47:35;;;;;;;7.22;3.00;;;;;;;16.55;61.23;99069.31;4845372;29;20065;-84
2022/11/16 22:50:22;;;;;;;5.55;2.90;;;;;;;16.57;61.25;99077.03;4846958;29;20450;-83
2022/11/16 22:53:27;;;;;;;7.15;3.08;;;;;;;16.57;61.37;99066.66;4847329;29;20044;-83
2022/11/16 23:29:07;;;;;;;4.75;2.85;;;;;;;16.53;61.35;98951.69;4847008;29;20069;-84
2022/11/16 23:46:25;;;;;;;5.18;2.72;;;;;;;16.51;61.54;98873.00;4771846;30;20055;-83
2022/11/16 23:49:24;;;;;;;;;;;;;;;16.51;61.60;98870.41;4739224;30;20041;-83
2022/11/16 23:59:35;;;;;;;5.55;2.60;;;;;;;16.51;61.20;98818.47;4756158;30;20149;-84
